sensor_id;sensor_type;location;lat;lon;timestamp;temperature;humidity
32322;DHT22;61553;48.994;8.940;2023-07-13T00:02:15;17.10;99.90
32322;DHT22;61553;48.994;8.940;2023-07-13T00:04:40;17.00;99.90
32322;DHT22;61553;48.994;8.940;2023-07-13T00:07:07;17.00;99.90
32322;DHT22;61553;48.994;8.940;2023-07-13T00:09:33;17.00;99.90
32322;DHT22;61553;48.994;8.940;2023-07-13T00:11:59;16.90;99.90
32322;DHT22;61553;48.994;8.940;2023-07-13T00:14:26;16.90;99.90
32322;DHT22;61553;48.994;8.940;2023-07-13T00:16:52;16.90;99.90
32322;DHT22;61553;48.994;8.940;2023-07-13T00:19:18;16.90;99.90
32322;DHT22;61553;48.994;8.940;2023-07-13T00:21:44;16.90;99.90
32322;DHT22;61553;48.994;8.940;2023-07-13T00:24:12;16.80;99.90
32322;DHT22;61553;48.994;8.940;2023-07-13T00:26:39;16.80;99.90
32322;DHT22;61553;48.994;8.940;2023-07-13T00:29:05;16.70;99.90
32322;DHT22;61553;48.994;8.940;2023-07-13T00:31:34;16.60;99.90
32322;DHT22;61553;48.994;8.940;2023-07-13T00:34:00;16.60;99.90
32322;DHT22;61553;48.994;8.940;2023-07-13T00:36:26;16.50;99.90
32322;DHT22;61553;48.994;8.940;2023-07-13T00:38:52;16.60;99.90
32322;DHT22;61553;48.994;8.940;2023-07-13T00:41:18;16.50;99.90
32322;DHT22;61553;48.994;8.940;2023-07-13T00:43:44;16.50;99.90
32322;DHT22;61553;48.994;8.940;2023-07-13T00:46:28;16.40;99.90
32322;DHT22;61553;48.994;8.940;2023-07-13T00:48:57;16.30;99.90
32322;DHT22;61553;48.994;8.940;2023-07-13T00:51:45;16.30;99.90
32322;DHT22;61553;48.994;8.940;2023-07-13T00:54:15;16.20;99.90
32322;DHT22;61553;48.994;8.940;2023-07-13T00:56:45;16.10;99.90
32322;DHT22;61553;48.994;8.940;2023-07-13T00:59:12;16.10;99.90
32322;DHT22;61553;48.994;8.940;2023-07-13T01:01:38;16.00;99.90
32322;DHT22;61553;48.994;8.940;2023-07-13T01:04:05;16.00;99.90
32322;DHT22;61553;48.994;8.940;2023-07-13T01:06:36;16.00;99.90
32322;DHT22;61553;48.994;8.940;2023-07-13T01:09:03;16.00;99.90
32322;DHT22;61553;48.994;8.940;2023-07-13T01:11:29;15.90;99.90
32322;DHT22;61553;48.994;8.940;2023-07-13T01:13:55;15.90;99.90
32322;DHT22;61553;48.994;8.940;2023-07-13T01:16:30;15.80;99.90
32322;DHT22;61553;48.994;8.940;2023-07-13T01:18:56;15.80;99.90
32322;DHT22;61553;48.994;8.940;2023-07-13T01:21:28;15.70;99.90
32322;DHT22;61553;48.994;8.940;2023-07-13T01:23:54;15.60;99.90
32322;DHT22;61553;48.994;8.940;2023-07-13T01:26:20;15.60;99.90
32322;DHT22;61553;48.994;8.940;2023-07-13T01:28:46;15.60;99.90
32322;DHT22;61553;48.994;8.940;2023-07-13T01:31:12;15.50;99.90
32322;DHT22;61553;48.994;8.940;2023-07-13T01:33:39;15.40;99.90
32322;DHT22;61553;48.994;8.940;2023-07-13T01:36:10;15.40;99.90
32322;DHT22;61553;48.994;8.940;2023-07-13T01:38:36;15.30;99.90
32322;DHT22;61553;48.994;8.940;2023-07-13T01:41:02;15.30;99.90
32322;DHT22;61553;48.994;8.940;2023-07-13T01:43:28;15.10;99.90
32322;DHT22;61553;48.994;8.940;2023-07-13T01:45:54;14.90;99.90
32322;DHT22;61553;48.994;8.940;2023-07-13T01:48:20;14.80;99.90
32322;DHT22;61553;48.994;8.940;2023-07-13T01:50:46;14.70;99.90
32322;DHT22;61553;48.994;8.940;2023-07-13T01:53:12;14.60;99.90
32322;DHT22;61553;48.994;8.940;2023-07-13T01:55:38;14.60;99.90
32322;DHT22;61553;48.994;8.940;2023-07-13T01:58:04;14.50;99.90
32322;DHT22;61553;48.994;8.940;2023-07-13T02:00:30;14.30;99.90
32322;DHT22;61553;48.994;8.940;2023-07-13T02:02:55;14.30;99.90
32322;DHT22;61553;48.994;8.940;2023-07-13T02:05:21;14.20;99.90
32322;DHT22;61553;48.994;8.940;2023-07-13T02:07:47;14.10;99.90
32322;DHT22;61553;48.994;8.940;2023-07-13T02:10:13;14.00;99.90
32322;DHT22;61553;48.994;8.940;2023-07-13T02:12:40;14.00;99.90
32322;DHT22;61553;48.994;8.940;2023-07-13T02:15:06;13.90;99.90
32322;DHT22;61553;48.994;8.940;2023-07-13T02:17:32;13.90;99.90
32322;DHT22;61553;48.994;8.940;2023-07-13T02:19:57;13.80;99.90
32322;DHT22;61553;48.994;8.940;2023-07-13T02:22:23;13.70;99.90
32322;DHT22;61553;48.994;8.940;2023-07-13T02:24:50;13.70;99.90
32322;DHT22;61553;48.994;8.940;2023-07-13T02:27:15;13.70;99.90
32322;DHT22;61553;48.994;8.940;2023-07-13T02:29:41;13.50;99.90
32322;DHT22;61553;48.994;8.940;2023-07-13T02:32:07;13.40;99.90
32322;DHT22;61553;48.994;8.940;2023-07-13T02:34:33;13.40;99.90
32322;DHT22;61553;48.994;8.940;2023-07-13T02:36:59;13.30;99.90
32322;DHT22;61553;48.994;8.940;2023-07-13T02:39:24;13.30;99.90
32322;DHT22;61553;48.994;8.940;2023-07-13T02:41:50;13.30;99.90
32322;DHT22;61553;48.994;8.940;2023-07-13T02:44:16;13.20;99.90
32322;DHT22;61553;48.994;8.940;2023-07-13T02:46:41;13.10;99.90
32322;DHT22;61553;48.994;8.940;2023-07-13T02:49:07;13.00;99.90
32322;DHT22;61553;48.994;8.940;2023-07-13T02:51:33;12.90;99.90
32322;DHT22;61553;48.994;8.940;2023-07-13T02:54:00;12.80;99.90
32322;DHT22;61553;48.994;8.940;2023-07-13T02:56:27;12.80;99.90
32322;DHT22;61553;48.994;8.940;2023-07-13T02:58:54;12.70;99.90
32322;DHT22;61553;48.994;8.940;2023-07-13T03:01:21;12.70;99.90
32322;DHT22;61553;48.994;8.940;2023-07-13T03:03:48;12.60;99.90
32322;DHT22;61553;48.994;8.940;2023-07-13T03:06:14;12.60;99.90
32322;DHT22;61553;48.994;8.940;2023-07-13T03:08:41;12.60;99.90
32322;DHT22;61553;48.994;8.940;2023-07-13T03:11:13;12.60;99.90
32322;DHT22;61553;48.994;8.940;2023-07-13T03:13:40;12.60;99.90
32322;DHT22;61553;48.994;8.940;2023-07-13T03:16:07;12.60;99.90
32322;DHT22;61553;48.994;8.940;2023-07-13T03:18:33;12.50;99.90
32322;DHT22;61553;48.994;8.940;2023-07-13T03:20:58;12.50;99.90
32322;DHT22;61553;48.994;8.940;2023-07-13T03:23:25;12.50;99.90
32322;DHT22;61553;48.994;8.940;2023-07-13T03:26:00;12.50;99.90
32322;DHT22;61553;48.994;8.940;2023-07-13T03:28:26;12.50;99.90
32322;DHT22;61553;48.994;8.940;2023-07-13T03:30:59;12.40;99.90
32322;DHT22;61553;48.994;8.940;2023-07-13T03:33:25;12.40;99.90
32322;DHT22;61553;48.994;8.940;2023-07-13T03:35:51;12.40;99.90
32322;DHT22;61553;48.994;8.940;2023-07-13T03:38:16;12.50;99.90
32322;DHT22;61553;48.994;8.940;2023-07-13T03:40:42;12.50;99.90
32322;DHT22;61553;48.994;8.940;2023-07-13T03:43:08;12.50;99.90
32322;DHT22;61553;48.994;8.940;2023-07-13T03:45:33;12.50;99.90
32322;DHT22;61553;48.994;8.940;2023-07-13T03:47:59;12.50;99.90
32322;DHT22;61553;48.994;8.940;2023-07-13T03:50:24;12.40;99.90
32322;DHT22;61553;48.994;8.940;2023-07-13T03:52:50;12.40;99.90
32322;DHT22;61553;48.994;8.940;2023-07-13T03:55:16;12.40;99.90
32322;DHT22;61553;48.994;8.940;2023-07-13T03:57:41;12.50;99.90
32322;DHT22;61553;48.994;8.940;2023-07-13T04:00:07;12.50;99.90
32322;DHT22;61553;48.994;8.940;2023-07-13T04:02:34;12.70;99.90
32322;DHT22;61553;48.994;8.940;2023-07-13T04:04:59;12.70;99.90
32322;DHT22;61553;48.994;8.940;2023-07-13T04:07:25;12.80;99.90
32322;DHT22;61553;48.994;8.940;2023-07-13T04:09:51;12.80;99.90
32322;DHT22;61553;48.994;8.940;2023-07-13T04:12:17;12.80;99.90
32322;DHT22;61553;48.994;8.940;2023-07-13T04:14:43;12.90;99.90
32322;DHT22;61553;48.994;8.940;2023-07-13T04:17:08;12.80;99.90
32322;DHT22;61553;48.994;8.940;2023-07-13T04:19:34;12.80;99.90
32322;DHT22;61553;48.994;8.940;2023-07-13T04:21:59;12.80;99.90
32322;DHT22;61553;48.994;8.940;2023-07-13T04:24:25;12.80;99.90
32322;DHT22;61553;48.994;8.940;2023-07-13T04:26:51;12.90;99.90
32322;DHT22;61553;48.994;8.940;2023-07-13T04:29:17;13.00;99.90
32322;DHT22;61553;48.994;8.940;2023-07-13T04:31:42;13.10;99.90
32322;DHT22;61553;48.994;8.940;2023-07-13T04:34:08;13.20;99.90
32322;DHT22;61553;48.994;8.940;2023-07-13T04:36:33;13.30;99.90
32322;DHT22;61553;48.994;8.940;2023-07-13T04:39:02;13.50;99.90
32322;DHT22;61553;48.994;8.940;2023-07-13T04:41:28;13.60;99.90
32322;DHT22;61553;48.994;8.940;2023-07-13T04:43:54;13.80;99.90
32322;DHT22;61553;48.994;8.940;2023-07-13T04:46:20;13.90;99.90
32322;DHT22;61553;48.994;8.940;2023-07-13T04:48:46;14.10;99.90
32322;DHT22;61553;48.994;8.940;2023-07-13T04:51:11;14.20;99.90
32322;DHT22;61553;48.994;8.940;2023-07-13T04:53:37;14.40;99.90
32322;DHT22;61553;48.994;8.940;2023-07-13T04:56:03;14.50;99.90
32322;DHT22;61553;48.994;8.940;2023-07-13T04:58:29;14.80;99.90
32322;DHT22;61553;48.994;8.940;2023-07-13T05:01:03;15.30;99.90
32322;DHT22;61553;48.994;8.940;2023-07-13T05:03:29;16.10;99.90
32322;DHT22;61553;48.994;8.940;2023-07-13T05:06:02;17.30;99.90
32322;DHT22;61553;48.994;8.940;2023-07-13T05:08:28;18.90;99.90
32322;DHT22;61553;48.994;8.940;2023-07-13T05:10:54;18.60;99.90
32322;DHT22;61553;48.994;8.940;2023-07-13T05:13:19;18.20;99.90
32322;DHT22;61553;48.994;8.940;2023-07-13T05:15:47;17.90;99.90
32322;DHT22;61553;48.994;8.940;2023-07-13T05:18:13;17.60;99.90
32322;DHT22;61553;48.994;8.940;2023-07-13T05:20:38;17.30;99.90
32322;DHT22;61553;48.994;8.940;2023-07-13T05:23:04;17.20;99.90
32322;DHT22;61553;48.994;8.940;2023-07-13T05:25:30;17.20;99.90
32322;DHT22;61553;48.994;8.940;2023-07-13T05:27:55;17.10;99.90
32322;DHT22;61553;48.994;8.940;2023-07-13T05:30:21;17.20;99.90
32322;DHT22;61553;48.994;8.940;2023-07-13T05:32:46;17.30;99.90
32322;DHT22;61553;48.994;8.940;2023-07-13T05:35:12;17.80;99.90
32322;DHT22;61553;48.994;8.940;2023-07-13T05:37:38;18.40;99.90
32322;DHT22;61553;48.994;8.940;2023-07-13T05:40:04;18.50;99.90
32322;DHT22;61553;48.994;8.940;2023-07-13T05:42:30;19.40;99.90
32322;DHT22;61553;48.994;8.940;2023-07-13T05:44:56;19.90;99.90
32322;DHT22;61553;48.994;8.940;2023-07-13T05:47:22;19.90;99.90
32322;DHT22;61553;48.994;8.940;2023-07-13T05:49:48;19.80;99.90
32322;DHT22;61553;48.994;8.940;2023-07-13T05:52:13;19.70;99.90
32322;DHT22;61553;48.994;8.940;2023-07-13T05:54:39;19.70;99.90
32322;DHT22;61553;48.994;8.940;2023-07-13T05:57:05;19.60;99.90
32322;DHT22;61553;48.994;8.940;2023-07-13T05:59:30;19.40;99.90
32322;DHT22;61553;48.994;8.940;2023-07-13T06:01:56;19.20;99.90
32322;DHT22;61553;48.994;8.940;2023-07-13T06:04:22;19.00;99.90
32322;DHT22;61553;48.994;8.940;2023-07-13T06:06:47;18.90;99.90
32322;DHT22;61553;48.994;8.940;2023-07-13T06:09:13;19.00;99.90
32322;DHT22;61553;48.994;8.940;2023-07-13T06:11:39;18.90;99.90
32322;DHT22;61553;48.994;8.940;2023-07-13T06:14:04;18.80;99.90
32322;DHT22;61553;48.994;8.940;2023-07-13T06:16:30;19.30;99.90
32322;DHT22;61553;48.994;8.940;2023-07-13T06:18:56;20.60;99.90
32322;DHT22;61553;48.994;8.940;2023-07-13T06:21:22;22.20;99.90
32322;DHT22;61553;48.994;8.940;2023-07-13T06:23:50;23.40;97.80
32322;DHT22;61553;48.994;8.940;2023-07-13T06:26:18;23.60;97.20
32322;DHT22;61553;48.994;8.940;2023-07-13T06:28:43;24.70;94.20
32322;DHT22;61553;48.994;8.940;2023-07-13T06:31:11;28.20;82.70
32322;DHT22;61553;48.994;8.940;2023-07-13T06:33:37;30.60;67.10
32322;DHT22;61553;48.994;8.940;2023-07-13T06:36:05;32.50;60.90
32322;DHT22;61553;48.994;8.940;2023-07-13T06:38:31;33.80;54.50
32322;DHT22;61553;48.994;8.940;2023-07-13T06:40:57;34.80;50.80
32322;DHT22;61553;48.994;8.940;2023-07-13T06:43:23;35.50;50.20
32322;DHT22;61553;48.994;8.940;2023-07-13T06:45:50;36.10;48.40
32322;DHT22;61553;48.994;8.940;2023-07-13T06:48:17;36.80;46.20
32322;DHT22;61553;48.994;8.940;2023-07-13T06:50:43;36.60;44.60
32322;DHT22;61553;48.994;8.940;2023-07-13T06:53:10;35.40;45.30
32322;DHT22;61553;48.994;8.940;2023-07-13T06:55:36;35.50;45.30
32322;DHT22;61553;48.994;8.940;2023-07-13T06:58:01;35.70;43.10
32322;DHT22;61553;48.994;8.940;2023-07-13T07:00:27;35.80;44.40
32322;DHT22;61553;48.994;8.940;2023-07-13T07:02:52;35.40;43.20
32322;DHT22;61553;48.994;8.940;2023-07-13T07:05:18;34.70;43.50
32322;DHT22;61553;48.994;8.940;2023-07-13T07:07:49;34.20;44.80
32322;DHT22;61553;48.994;8.940;2023-07-13T07:10:15;33.90;44.90
32322;DHT22;61553;48.994;8.940;2023-07-13T07:12:40;35.70;41.10
32322;DHT22;61553;48.994;8.940;2023-07-13T07:15:06;36.80;41.20
32322;DHT22;61553;48.994;8.940;2023-07-13T07:17:32;37.40;39.10
32322;DHT22;61553;48.994;8.940;2023-07-13T07:19:57;37.20;39.40
32322;DHT22;61553;48.994;8.940;2023-07-13T07:22:23;36.50;40.10
32322;DHT22;61553;48.994;8.940;2023-07-13T07:24:52;36.40;39.80
32322;DHT22;61553;48.994;8.940;2023-07-13T07:27:18;36.20;40.20
32322;DHT22;61553;48.994;8.940;2023-07-13T07:29:43;37.40;39.00
32322;DHT22;61553;48.994;8.940;2023-07-13T07:32:09;37.70;38.30
32322;DHT22;61553;48.994;8.940;2023-07-13T07:34:35;37.10;38.40
32322;DHT22;61553;48.994;8.940;2023-07-13T07:37:01;37.30;38.00
32322;DHT22;61553;48.994;8.940;2023-07-13T07:39:27;37.70;38.40
32322;DHT22;61553;48.994;8.940;2023-07-13T07:41:52;38.20;38.00
32322;DHT22;61553;48.994;8.940;2023-07-13T07:44:18;37.90;37.30
32322;DHT22;61553;48.994;8.940;2023-07-13T07:46:44;37.60;37.80
32322;DHT22;61553;48.994;8.940;2023-07-13T07:49:10;38.10;37.10
32322;DHT22;61553;48.994;8.940;2023-07-13T07:51:36;38.50;36.60
32322;DHT22;61553;48.994;8.940;2023-07-13T07:54:02;38.20;36.50
32322;DHT22;61553;48.994;8.940;2023-07-13T07:56:28;37.50;37.20
32322;DHT22;61553;48.994;8.940;2023-07-13T07:58:54;37.40;37.20
32322;DHT22;61553;48.994;8.940;2023-07-13T08:01:20;37.40;36.90
32322;DHT22;61553;48.994;8.940;2023-07-13T08:03:45;37.80;37.70
32322;DHT22;61553;48.994;8.940;2023-07-13T08:06:11;38.80;35.90
32322;DHT22;61553;48.994;8.940;2023-07-13T08:08:36;39.20;36.00
32322;DHT22;61553;48.994;8.940;2023-07-13T08:11:04;39.30;35.70
32322;DHT22;61553;48.994;8.940;2023-07-13T08:13:29;39.60;33.40
32322;DHT22;61553;48.994;8.940;2023-07-13T08:15:55;40.30;33.70
32322;DHT22;61553;48.994;8.940;2023-07-13T08:18:21;39.90;33.90
32322;DHT22;61553;48.994;8.940;2023-07-13T08:20:46;39.60;33.80
32322;DHT22;61553;48.994;8.940;2023-07-13T08:23:12;40.00;33.70
32322;DHT22;61553;48.994;8.940;2023-07-13T08:25:38;40.20;33.50
32322;DHT22;61553;48.994;8.940;2023-07-13T08:28:03;39.80;33.90
32322;DHT22;61553;48.994;8.940;2023-07-13T08:30:29;38.40;34.20
32322;DHT22;61553;48.994;8.940;2023-07-13T08:32:55;38.40;34.50
32322;DHT22;61553;48.994;8.940;2023-07-13T08:35:20;38.20;34.10
32322;DHT22;61553;48.994;8.940;2023-07-13T08:37:46;37.30;35.00
32322;DHT22;61553;48.994;8.940;2023-07-13T08:40:12;37.90;34.20
32322;DHT22;61553;48.994;8.940;2023-07-13T08:42:54;38.30;33.70
32322;DHT22;61553;48.994;8.940;2023-07-13T08:45:29;39.60;33.20
32322;DHT22;61553;48.994;8.940;2023-07-13T08:48:02;40.40;32.70
32322;DHT22;61553;48.994;8.940;2023-07-13T08:50:32;40.80;31.80
32322;DHT22;61553;48.994;8.940;2023-07-13T08:53:02;40.90;32.60
32322;DHT22;61553;48.994;8.940;2023-07-13T08:55:34;41.10;31.70
32322;DHT22;61553;48.994;8.940;2023-07-13T08:58:13;41.10;32.10
32322;DHT22;61553;48.994;8.940;2023-07-13T09:06:34;40.60;32.10
32322;DHT22;61553;48.994;8.940;2023-07-13T09:12:17;40.20;32.00
32322;DHT22;61553;48.994;8.940;2023-07-13T09:14:49;40.20;32.50
32322;DHT22;61553;48.994;8.940;2023-07-13T09:17:24;39.60;32.10
32322;DHT22;61553;48.994;8.940;2023-07-13T09:20:01;40.10;32.70
32322;DHT22;61553;48.994;8.940;2023-07-13T09:22:32;42.00;31.70
32322;DHT22;61553;48.994;8.940;2023-07-13T09:27:53;42.10;30.80
32322;DHT22;61553;48.994;8.940;2023-07-13T09:30:27;42.40;30.90
32322;DHT22;61553;48.994;8.940;2023-07-13T09:32:55;42.80;30.40
32322;DHT22;61553;48.994;8.940;2023-07-13T09:35:25;41.90;30.80
32322;DHT22;61553;48.994;8.940;2023-07-13T09:37:58;42.20;30.00
32322;DHT22;61553;48.994;8.940;2023-07-13T09:40:53;43.40;30.00
32322;DHT22;61553;48.994;8.940;2023-07-13T09:43:15;44.00;30.30
32322;DHT22;61553;48.994;8.940;2023-07-13T09:45:45;41.40;31.20
32322;DHT22;61553;48.994;8.940;2023-07-13T09:48:13;41.80;30.80
32322;DHT22;61553;48.994;8.940;2023-07-13T09:50:40;42.00;30.90
32322;DHT22;61553;48.994;8.940;2023-07-13T09:53:18;40.30;31.00
32322;DHT22;61553;48.994;8.940;2023-07-13T09:55:46;39.40;32.30
32322;DHT22;61553;48.994;8.940;2023-07-13T09:58:21;39.40;32.60
32322;DHT22;61553;48.994;8.940;2023-07-13T10:00:58;39.50;33.10
32322;DHT22;61553;48.994;8.940;2023-07-13T10:03:28;38.20;32.30
32322;DHT22;61553;48.994;8.940;2023-07-13T10:05:54;36.10;33.50
32322;DHT22;61553;48.994;8.940;2023-07-13T10:08:28;35.20;34.80
32322;DHT22;61553;48.994;8.940;2023-07-13T10:13:38;36.30;35.10
32322;DHT22;61553;48.994;8.940;2023-07-13T10:16:07;36.70;34.00
32322;DHT22;61553;48.994;8.940;2023-07-13T10:18:43;36.50;34.80
32322;DHT22;61553;48.994;8.940;2023-07-13T10:23:40;37.90;33.10
32322;DHT22;61553;48.994;8.940;2023-07-13T10:26:13;37.90;32.00
32322;DHT22;61553;48.994;8.940;2023-07-13T10:28:41;37.90;32.10
32322;DHT22;61553;48.994;8.940;2023-07-13T10:31:13;37.70;33.40
32322;DHT22;61553;48.994;8.940;2023-07-13T10:33:39;36.50;33.90
32322;DHT22;61553;48.994;8.940;2023-07-13T10:36:27;36.30;34.90
32322;DHT22;61553;48.994;8.940;2023-07-13T10:38:55;35.00;35.40
32322;DHT22;61553;48.994;8.940;2023-07-13T10:41:24;33.80;36.20
32322;DHT22;61553;48.994;8.940;2023-07-13T10:43:52;33.10;38.10
32322;DHT22;61553;48.994;8.940;2023-07-13T10:46:21;32.60;38.20
32322;DHT22;61553;48.994;8.940;2023-07-13T10:48:52;32.00;38.20
32322;DHT22;61553;48.994;8.940;2023-07-13T10:51:19;31.90;38.20
32322;DHT22;61553;48.994;8.940;2023-07-13T10:56:40;30.50;40.30
32322;DHT22;61553;48.994;8.940;2023-07-13T10:59:15;30.10;40.90
32322;DHT22;61553;48.994;8.940;2023-07-13T11:04:19;29.10;43.60
32322;DHT22;61553;48.994;8.940;2023-07-13T11:06:47;29.00;41.60
32322;DHT22;61553;48.994;8.940;2023-07-13T11:09:37;28.90;42.30
32322;DHT22;61553;48.994;8.940;2023-07-13T11:17:33;28.40;42.50
32322;DHT22;61553;48.994;8.940;2023-07-13T11:25:39;28.00;44.10
32322;DHT22;61553;48.994;8.940;2023-07-13T11:38:40;27.20;43.60
32322;DHT22;61553;48.994;8.940;2023-07-13T11:41:18;27.40;42.80
32322;DHT22;61553;48.994;8.940;2023-07-13T11:43:45;27.50;41.80
32322;DHT22;61553;48.994;8.940;2023-07-13T11:46:20;27.60;44.00
32322;DHT22;61553;48.994;8.940;2023-07-13T11:48:47;27.50;44.50
32322;DHT22;61553;48.994;8.940;2023-07-13T11:51:29;27.60;42.40
32322;DHT22;61553;48.994;8.940;2023-07-13T11:54:47;27.40;42.90
32322;DHT22;61553;48.994;8.940;2023-07-13T11:56:48;27.20;43.00
32322;DHT22;61553;48.994;8.940;2023-07-13T11:59:14;27.40;43.00
32322;DHT22;61553;48.994;8.940;2023-07-13T12:01:46;27.50;43.00
32322;DHT22;61553;48.994;8.940;2023-07-13T12:04:30;27.70;40.80
32322;DHT22;61553;48.994;8.940;2023-07-13T12:07:14;27.70;39.20
32322;DHT22;61553;48.994;8.940;2023-07-13T12:09:40;27.70;42.40
32322;DHT22;61553;48.994;8.940;2023-07-13T12:12:28;27.60;41.40
32322;DHT22;61553;48.994;8.940;2023-07-13T12:14:53;27.70;41.10
32322;DHT22;61553;48.994;8.940;2023-07-13T12:17:22;27.70;40.10
32322;DHT22;61553;48.994;8.940;2023-07-13T12:19:48;27.80;40.40
32322;DHT22;61553;48.994;8.940;2023-07-13T12:22:16;27.70;40.40
32322;DHT22;61553;48.994;8.940;2023-07-13T12:24:43;27.80;41.10
32322;DHT22;61553;48.994;8.940;2023-07-13T12:30:00;27.90;40.80
32322;DHT22;61553;48.994;8.940;2023-07-13T12:32:26;27.80;42.40
32322;DHT22;61553;48.994;8.940;2023-07-13T12:35:01;27.70;42.80
32322;DHT22;61553;48.994;8.940;2023-07-13T12:37:28;27.60;43.20
32322;DHT22;61553;48.994;8.940;2023-07-13T12:39:56;27.60;41.70
32322;DHT22;61553;48.994;8.940;2023-07-13T12:42:28;27.60;41.80
32322;DHT22;61553;48.994;8.940;2023-07-13T12:45:03;27.40;44.10
32322;DHT22;61553;48.994;8.940;2023-07-13T12:47:30;27.10;43.90
32322;DHT22;61553;48.994;8.940;2023-07-13T12:49:58;27.00;44.00
32322;DHT22;61553;48.994;8.940;2023-07-13T12:52:34;27.00;43.60
32322;DHT22;61553;48.994;8.940;2023-07-13T12:55:07;27.00;43.10
32322;DHT22;61553;48.994;8.940;2023-07-13T12:57:57;27.00;41.80
32322;DHT22;61553;48.994;8.940;2023-07-13T13:02:55;27.10;44.90
32322;DHT22;61553;48.994;8.940;2023-07-13T13:05:21;27.10;43.70
32322;DHT22;61553;48.994;8.940;2023-07-13T13:07:49;27.00;43.20
32322;DHT22;61553;48.994;8.940;2023-07-13T13:10:15;27.10;42.60
32322;DHT22;61553;48.994;8.940;2023-07-13T13:12:41;27.10;44.20
32322;DHT22;61553;48.994;8.940;2023-07-13T13:15:10;27.10;43.50
32322;DHT22;61553;48.994;8.940;2023-07-13T13:17:37;27.30;43.70
32322;DHT22;61553;48.994;8.940;2023-07-13T13:20:17;27.40;43.80
32322;DHT22;61553;48.994;8.940;2023-07-13T13:22:43;27.70;42.40
32322;DHT22;61553;48.994;8.940;2023-07-13T13:25:12;27.80;41.30
32322;DHT22;61553;48.994;8.940;2023-07-13T13:27:40;27.90;41.90
32322;DHT22;61553;48.994;8.940;2023-07-13T13:30:14;27.80;42.80
32322;DHT22;61553;48.994;8.940;2023-07-13T13:32:43;27.90;41.40
32322;DHT22;61553;48.994;8.940;2023-07-13T13:35:16;28.00;41.30
32322;DHT22;61553;48.994;8.940;2023-07-13T13:37:43;28.10;40.70
32322;DHT22;61553;48.994;8.940;2023-07-13T13:40:26;28.20;39.40
32322;DHT22;61553;48.994;8.940;2023-07-13T13:42:53;28.40;41.40
32322;DHT22;61553;48.994;8.940;2023-07-13T13:45:21;28.50;40.10
32322;DHT22;61553;48.994;8.940;2023-07-13T13:47:47;28.40;40.60
32322;DHT22;61553;48.994;8.940;2023-07-13T13:50:19;28.10;40.60
32322;DHT22;61553;48.994;8.940;2023-07-13T13:52:45;28.10;40.80
32322;DHT22;61553;48.994;8.940;2023-07-13T13:55:16;28.10;40.20
32322;DHT22;61553;48.994;8.940;2023-07-13T13:57:43;28.10;40.10
32322;DHT22;61553;48.994;8.940;2023-07-13T14:00:10;28.10;40.80
32322;DHT22;61553;48.994;8.940;2023-07-13T14:02:40;28.30;41.80
32322;DHT22;61553;48.994;8.940;2023-07-13T14:05:12;28.10;40.30
32322;DHT22;61553;48.994;8.940;2023-07-13T14:07:38;28.00;41.10
32322;DHT22;61553;48.994;8.940;2023-07-13T14:10:18;28.20;41.40
32322;DHT22;61553;48.994;8.940;2023-07-13T14:12:46;28.20;43.30
32322;DHT22;61553;48.994;8.940;2023-07-13T14:15:26;28.10;43.80
32322;DHT22;61553;48.994;8.940;2023-07-13T14:17:53;27.90;41.60
32322;DHT22;61553;48.994;8.940;2023-07-13T14:20:21;28.10;42.40
32322;DHT22;61553;48.994;8.940;2023-07-13T14:22:49;27.90;41.40
32322;DHT22;61553;48.994;8.940;2023-07-13T14:25:16;27.70;43.30
32322;DHT22;61553;48.994;8.940;2023-07-13T14:27:43;27.70;42.30
32322;DHT22;61553;48.994;8.940;2023-07-13T14:30:20;27.90;42.30
32322;DHT22;61553;48.994;8.940;2023-07-13T14:32:46;27.70;43.20
32322;DHT22;61553;48.994;8.940;2023-07-13T14:35:13;27.70;43.60
32322;DHT22;61553;48.994;8.940;2023-07-13T14:37:40;27.50;41.90
32322;DHT22;61553;48.994;8.940;2023-07-13T14:40:17;27.60;42.60
32322;DHT22;61553;48.994;8.940;2023-07-13T14:42:44;27.50;41.80
32322;DHT22;61553;48.994;8.940;2023-07-13T14:45:15;27.40;42.10
32322;DHT22;61553;48.994;8.940;2023-07-13T14:47:42;27.40;41.40
32322;DHT22;61553;48.994;8.940;2023-07-13T14:50:20;27.50;42.50
32322;DHT22;61553;48.994;8.940;2023-07-13T14:52:46;27.20;42.20
32322;DHT22;61553;48.994;8.940;2023-07-13T14:55:17;27.20;42.70
32322;DHT22;61553;48.994;8.940;2023-07-13T14:57:43;27.10;43.70
32322;DHT22;61553;48.994;8.940;2023-07-13T15:00:13;27.10;43.70
32322;DHT22;61553;48.994;8.940;2023-07-13T15:02:50;27.20;44.30
32322;DHT22;61553;48.994;8.940;2023-07-13T15:05:22;27.30;43.20
32322;DHT22;61553;48.994;8.940;2023-07-13T15:07:53;27.10;43.30
32322;DHT22;61553;48.994;8.940;2023-07-13T15:10:30;27.10;44.60
32322;DHT22;61553;48.994;8.940;2023-07-13T15:13:00;27.10;44.50
32322;DHT22;61553;48.994;8.940;2023-07-13T15:15:28;27.10;43.30
32322;DHT22;61553;48.994;8.940;2023-07-13T15:17:54;26.90;42.30
32322;DHT22;61553;48.994;8.940;2023-07-13T15:20:32;26.90;43.40
32322;DHT22;61553;48.994;8.940;2023-07-13T15:22:58;26.80;43.90
32322;DHT22;61553;48.994;8.940;2023-07-13T15:25:26;26.80;42.90
32322;DHT22;61553;48.994;8.940;2023-07-13T15:27:54;26.70;44.30
32322;DHT22;61553;48.994;8.940;2023-07-13T15:30:21;26.40;43.60
32322;DHT22;61553;48.994;8.940;2023-07-13T15:32:47;26.10;44.50
32322;DHT22;61553;48.994;8.940;2023-07-13T15:35:18;25.90;45.80
32322;DHT22;61553;48.994;8.940;2023-07-13T15:37:45;25.90;45.50
32322;DHT22;61553;48.994;8.940;2023-07-13T15:40:12;26.00;44.40
32322;DHT22;61553;48.994;8.940;2023-07-13T15:42:40;26.10;45.20
32322;DHT22;61553;48.994;8.940;2023-07-13T15:45:24;26.30;44.70
32322;DHT22;61553;48.994;8.940;2023-07-13T15:47:50;26.50;44.40
32322;DHT22;61553;48.994;8.940;2023-07-13T15:50:21;26.50;44.70
32322;DHT22;61553;48.994;8.940;2023-07-13T15:52:53;26.50;43.90
32322;DHT22;61553;48.994;8.940;2023-07-13T15:55:20;26.70;43.50
32322;DHT22;61553;48.994;8.940;2023-07-13T15:57:51;26.50;44.50
32322;DHT22;61553;48.994;8.940;2023-07-13T16:02:47;26.30;44.60
32322;DHT22;61553;48.994;8.940;2023-07-13T16:05:13;26.30;45.00
32322;DHT22;61553;48.994;8.940;2023-07-13T16:07:45;26.20;44.10
32322;DHT22;61553;48.994;8.940;2023-07-13T16:10:24;26.10;44.60
32322;DHT22;61553;48.994;8.940;2023-07-13T16:12:52;26.20;45.70
32322;DHT22;61553;48.994;8.940;2023-07-13T16:15:20;26.10;45.50
32322;DHT22;61553;48.994;8.940;2023-07-13T16:17:47;26.10;45.00
32322;DHT22;61553;48.994;8.940;2023-07-13T16:20:14;26.10;46.30
32322;DHT22;61553;48.994;8.940;2023-07-13T16:22:44;26.00;45.50
32322;DHT22;61553;48.994;8.940;2023-07-13T16:25:22;26.00;46.00
32322;DHT22;61553;48.994;8.940;2023-07-13T16:27:49;26.10;45.90
32322;DHT22;61553;48.994;8.940;2023-07-13T16:30:21;26.20;45.60